Allenton, Michigan
Current Conditions -  °F | °C
As of 1:33 PM on Tuesday 27 Jan 2015 (Local Time) from KD95 Reporting Station
Scattered Clouds Scattered Clouds  
Wind Chill: 16°   Ceiling: Unl
Heat Index: 23°   Visibility: 10mi
Dew Point: 11°   Wind: 6mph
Humidity: 60%   Direction: 20°NNE
Pressure: 30.11"   Gusts: NA
Location:  42.92°N, 82.95°W
Report Text: KD95 271833Z AUTO 02005KT 10SM SCT029 M05/M12 A3011 RMK AO2 T10501116
Loading
Personal Weather Stations






























Interactive Weather Map New forecast layout! Learn more

10-Day Weather Forecast

Advertisements
Track Severe Weather on mobile